createdAt,value
2019-04-19T00:00:32.741Z,20.53
2019-04-19T00:01:35.281Z,20.46
2019-04-19T00:02:38.388Z,20.50
2019-04-19T00:03:34.565Z,20.53
2019-04-19T00:04:33.180Z,20.51
2019-04-19T00:05:35.814Z,20.47
2019-04-19T00:06:36.716Z,20.51
2019-04-19T00:07:32.187Z,20.51
2019-04-19T00:08:43.594Z,20.47
2019-04-19T00:09:43.924Z,20.49
2019-04-19T00:10:41.302Z,20.47
2019-04-19T00:11:40.274Z,20.39
2019-04-19T00:12:40.438Z,20.42
2019-04-19T00:13:32.576Z,20.47
2019-04-19T00:14:32.225Z,20.39
2019-04-19T00:15:32.810Z,20.46
2019-04-19T00:16:32.310Z,20.38
2019-04-19T00:17:34.259Z,20.34
2019-04-19T00:18:32.801Z,20.33
2019-04-19T00:19:52.544Z,20.35
2019-04-19T00:20:52.594Z,20.34
2019-04-19T00:22:01.975Z,20.33
2019-04-19T00:22:48.227Z,20.35
2019-04-19T00:23:39.207Z,20.38
2019-04-19T00:24:33.450Z,20.27
2019-04-19T00:25:32.755Z,20.28
2019-04-19T00:26:33.838Z,20.25
2019-04-19T00:27:41.577Z,20.25
2019-04-19T00:28:41.419Z,20.24
2019-04-19T00:29:42.445Z,20.20
2019-04-19T00:30:46.582Z,20.30
2019-04-19T00:31:42.778Z,20.28
2019-04-19T00:32:52.755Z,20.24
2019-04-19T00:33:40.779Z,20.21
2019-04-19T00:34:33.647Z,20.21
2019-04-19T00:35:33.164Z,20.24
2019-04-19T00:36:33.987Z,20.09
2019-04-19T00:37:33.469Z,20.13
2019-04-19T00:38:42.996Z,20.13
2019-04-19T00:39:51.770Z,20.18
2019-04-19T00:40:46.016Z,20.25
2019-04-19T00:41:47.569Z,20.12
2019-04-19T00:42:48.268Z,20.23
2019-04-19T00:43:51.081Z,20.10
2019-04-19T00:44:51.707Z,20.10
2019-04-19T00:45:57.307Z,20.16
2019-04-19T00:46:53.893Z,20.18
2019-04-19T00:47:49.927Z,20.16
2019-04-19T00:48:48.942Z,20.12
2019-04-19T00:49:48.990Z,20.10
2019-04-19T00:50:51.475Z,20.02
2019-04-19T00:51:49.058Z,20.06
2019-04-19T00:52:50.506Z,20.09
2019-04-19T00:53:41.873Z,20.00
2019-04-19T00:54:45.998Z,20.08
2019-04-19T00:55:44.114Z,20.12
2019-04-19T00:56:48.112Z,19.98
2019-04-19T00:57:42.331Z,19.97
2019-04-19T00:58:36.251Z,20.02
2019-04-19T00:59:40.276Z,20.06
2019-04-19T01:00:37.121Z,19.97
2019-04-19T01:01:35.491Z,19.98
2019-04-19T01:02:44.049Z,19.95
2019-04-19T01:03:39.631Z,20.00
2019-04-19T01:04:36.301Z,19.88
2019-04-19T01:05:42.450Z,19.95
2019-04-19T01:07:38.714Z,19.87
2019-04-19T01:08:48.242Z,19.95
2019-04-19T01:09:46.467Z,19.94
2019-04-19T01:10:43.838Z,19.86
2019-04-19T01:11:51.774Z,19.87
2019-04-19T01:12:54.710Z,19.80
2019-04-19T01:13:51.418Z,19.90
2019-04-19T01:14:44.571Z,19.87
2019-04-19T01:15:48.125Z,19.83
2019-04-19T01:16:51.610Z,19.88
2019-04-19T01:17:54.170Z,19.90
2019-04-19T01:18:42.007Z,19.86
2019-04-19T01:19:39.006Z,19.87
2019-04-19T01:20:35.366Z,19.88
2019-04-19T01:21:36.345Z,19.86
2019-04-19T01:22:36.201Z,19.83
2019-04-19T01:23:42.219Z,19.79
2019-04-19T01:24:41.163Z,19.83
2019-04-19T01:25:35.397Z,19.83
2019-04-19T01:26:40.816Z,19.75
2019-04-19T01:27:36.451Z,19.76
2019-04-19T01:28:35.540Z,19.90
2019-04-19T01:29:40.493Z,19.79
2019-04-19T01:30:39.780Z,19.84
2019-04-19T01:31:35.681Z,19.80
2019-04-19T01:32:43.176Z,19.80
2019-04-19T01:33:39.953Z,19.83
2019-04-19T01:34:35.785Z,19.83
2019-04-19T01:35:42.980Z,19.84
2019-04-19T01:36:38.968Z,19.84
2019-04-19T01:37:36.997Z,19.80
2019-04-19T01:38:40.907Z,19.86
2019-04-19T01:39:55.618Z,19.87
2019-04-19T01:41:01.300Z,19.79
2019-04-19T01:41:49.352Z,19.78
2019-04-19T01:42:50.243Z,19.78
2019-04-19T01:43:54.952Z,19.76
2019-04-19T01:44:53.375Z,19.78
2019-04-19T01:45:56.801Z,19.72
2019-04-19T01:46:53.517Z,19.78
2019-04-19T01:47:51.474Z,19.70
2019-04-19T01:48:52.721Z,19.83
2019-04-19T01:49:51.749Z,19.84
2019-04-19T01:50:57.114Z,19.75
2019-04-19T01:51:51.734Z,19.79
2019-04-19T01:52:57.992Z,19.79
2019-04-19T01:53:49.982Z,19.83
2019-04-19T01:54:53.363Z,19.83
2019-04-19T01:55:40.137Z,19.78
2019-04-19T01:56:40.815Z,19.83
2019-04-19T01:57:36.775Z,19.86
2019-04-19T01:58:38.071Z,19.80
2019-04-19T01:59:43.546Z,19.84
2019-04-19T02:00:41.837Z,19.83
2019-04-19T02:01:37.711Z,19.84
2019-04-19T02:02:43.626Z,19.78
2019-04-19T02:03:43.686Z,19.87
2019-04-19T02:04:39.203Z,19.87
2019-04-19T02:05:47.219Z,19.88
2019-04-19T02:06:41.807Z,19.88
2019-04-19T02:07:38.677Z,19.80
2019-04-19T02:08:41.370Z,19.95
2019-04-19T02:09:55.209Z,19.90
2019-04-19T02:10:48.188Z,19.88
2019-04-19T02:11:48.360Z,19.93
2019-04-19T02:12:47.169Z,19.97
2019-04-19T02:13:50.077Z,19.98
2019-04-19T02:14:49.619Z,20.08
2019-04-19T02:15:43.723Z,20.03
2019-04-19T02:16:38.615Z,20.05
2019-04-19T02:17:43.121Z,20.10
2019-04-19T02:18:38.975Z,20.06
2019-04-19T02:19:38.828Z,20.03
2019-04-19T02:20:43.393Z,20.00
2019-04-19T02:21:42.298Z,19.97
2019-04-19T02:22:40.717Z,19.95
2019-04-19T02:23:44.637Z,19.97
2019-04-19T02:24:44.135Z,19.93
2019-04-19T02:25:39.234Z,19.91
2019-04-19T02:26:44.893Z,19.93
2019-04-19T02:27:42.252Z,19.93
2019-04-19T02:28:40.964Z,19.87
2019-04-19T02:29:38.606Z,19.90
2019-04-19T02:30:56.147Z,19.86
2019-04-19T02:32:09.170Z,19.94
2019-04-19T02:33:01.253Z,19.88
2019-04-19T02:36:08.579Z,19.91
2019-04-19T02:37:08.869Z,19.87
2019-04-19T02:38:03.637Z,19.86
2019-04-19T02:39:12.205Z,19.84
2019-04-19T02:40:16.868Z,19.86
2019-04-19T02:41:11.514Z,19.83
2019-04-19T02:42:18.540Z,19.79
2019-04-19T02:43:06.722Z,19.80
2019-04-19T02:44:04.134Z,19.80
2019-04-19T02:45:08.360Z,19.65
2019-04-19T02:46:23.426Z,19.69
2019-04-19T02:48:01.629Z,19.68
2019-04-19T02:49:14.055Z,19.66
2019-04-19T02:50:14.268Z,19.70
2019-04-19T02:51:15.747Z,19.66
2019-04-19T02:52:10.067Z,19.70
2019-04-19T02:54:13.496Z,19.63
2019-04-19T02:55:09.323Z,19.65
2019-04-19T02:56:11.165Z,19.61
2019-04-19T02:57:10.278Z,19.65
2019-04-19T02:58:09.748Z,19.54
2019-04-19T02:59:09.549Z,19.57
2019-04-19T03:00:13.700Z,19.43
2019-04-19T03:01:12.945Z,19.51
2019-04-19T03:02:14.757Z,19.50
2019-04-19T03:03:07.897Z,19.47
2019-04-19T03:04:15.961Z,19.50
2019-04-19T03:05:09.322Z,19.47
2019-04-19T03:05:58.652Z,19.46
2019-04-19T03:06:47.742Z,19.46
2019-04-19T03:07:40.561Z,19.43
2019-04-19T03:08:39.939Z,19.39
2019-04-19T03:09:43.555Z,19.39
2019-04-19T03:10:56.082Z,19.43
2019-04-19T03:11:56.040Z,19.35
2019-04-19T03:13:00.205Z,19.33
2019-04-19T03:13:59.517Z,19.43
2019-04-19T03:14:52.184Z,19.31
2019-04-19T03:15:55.733Z,19.29
2019-04-19T03:16:59.348Z,19.33
2019-04-19T03:17:58.189Z,19.31
2019-04-19T03:18:56.018Z,19.25
2019-04-19T03:19:54.084Z,19.20
2019-04-19T03:20:51.759Z,19.21
2019-04-19T03:21:50.324Z,19.18
2019-04-19T03:22:56.869Z,19.20
2019-04-19T03:23:55.402Z,19.11
2019-04-19T03:25:00.737Z,19.15
2019-04-19T03:25:51.758Z,19.17
2019-04-19T03:26:56.266Z,19.05
2019-04-19T03:27:52.099Z,19.05
2019-04-19T03:28:47.688Z,19.06
2019-04-19T03:29:45.315Z,19.08
2019-04-19T03:31:08.343Z,19.11
2019-04-19T03:32:22.632Z,19.13
2019-04-19T03:34:02.929Z,19.10
2019-04-19T03:35:25.281Z,19.08
2019-04-19T03:36:02.234Z,19.01
2019-04-19T03:36:55.170Z,19.13
2019-04-19T03:38:03.614Z,18.99
2019-04-19T03:38:59.474Z,19.10
2019-04-19T03:40:08.675Z,19.10
2019-04-19T03:40:57.185Z,19.02
2019-04-19T03:42:18.734Z,19.05
2019-04-19T03:42:54.195Z,19.10
2019-04-19T03:43:56.648Z,19.15
2019-04-19T03:45:01.513Z,19.10
2019-04-19T03:46:01.817Z,19.02
2019-04-19T03:47:04.190Z,19.13
2019-04-19T03:48:05.931Z,19.06
2019-04-19T03:48:58.392Z,19.02
2019-04-19T03:49:58.387Z,19.05
2019-04-19T03:51:07.128Z,18.91
2019-04-19T03:53:00.658Z,18.97
2019-04-19T03:54:00.538Z,18.98
2019-04-19T03:54:57.027Z,18.98
2019-04-19T03:56:06.351Z,18.97
2019-04-19T03:57:00.289Z,18.97
2019-04-19T03:57:53.664Z,18.92
2019-04-19T03:58:42.120Z,18.92
2019-04-19T03:59:43.396Z,18.90
2019-04-19T04:00:42.932Z,18.87
2019-04-19T04:01:48.272Z,18.87
2019-04-19T04:02:45.923Z,18.87
2019-04-19T04:03:46.128Z,18.82
2019-04-19T04:04:48.366Z,18.84
2019-04-19T04:05:48.272Z,18.86
2019-04-19T04:06:44.290Z,18.83
2019-04-19T04:07:45.466Z,18.76
2019-04-19T04:08:48.526Z,18.76
2019-04-19T04:09:47.528Z,18.73
2019-04-19T04:10:45.591Z,18.83
2019-04-19T04:11:52.927Z,18.76
2019-04-19T04:12:54.609Z,18.76
2019-04-19T04:13:58.445Z,18.74
2019-04-19T04:14:56.844Z,18.68
2019-04-19T04:15:56.900Z,18.64
2019-04-19T04:16:47.098Z,18.70
2019-04-19T04:17:43.581Z,18.77
2019-04-19T04:18:43.039Z,18.64
2019-04-19T04:19:44.110Z,18.70
2019-04-19T04:20:50.655Z,18.67
2019-04-19T04:21:46.932Z,18.70
2019-04-19T04:22:46.359Z,18.62
2019-04-19T04:23:47.243Z,18.58
2019-04-19T04:24:53.440Z,18.59
2019-04-19T04:25:55.441Z,18.57
2019-04-19T04:26:54.820Z,18.61
2019-04-19T04:27:53.377Z,18.58
2019-04-19T04:28:57.918Z,18.57
2019-04-19T04:29:57.082Z,18.55
2019-04-19T04:30:56.105Z,18.52
2019-04-19T04:31:58.066Z,18.57
2019-04-19T04:32:56.969Z,18.55
2019-04-19T04:33:54.507Z,18.54
2019-04-19T04:34:52.076Z,18.50
2019-04-19T04:35:58.622Z,18.44
2019-04-19T04:36:58.163Z,18.47
2019-04-19T04:37:55.992Z,18.52
2019-04-19T04:38:46.270Z,18.50
2019-04-19T04:39:45.068Z,18.39
2019-04-19T04:40:44.457Z,18.43
2019-04-19T04:41:46.852Z,18.47
2019-04-19T04:43:00.315Z,18.46
2019-04-19T04:44:06.039Z,18.40
2019-04-19T04:45:10.608Z,18.39
2019-04-19T04:46:13.813Z,18.42
2019-04-19T04:48:01.294Z,18.46
2019-04-19T04:49:04.438Z,18.40
2019-04-19T04:50:09.717Z,18.40
2019-04-19T04:51:06.851Z,18.46
2019-04-19T04:51:57.157Z,18.47
2019-04-19T04:52:46.523Z,18.58
2019-04-19T04:53:44.899Z,18.57
2019-04-19T04:54:45.486Z,18.68
2019-04-19T04:55:50.777Z,18.55
2019-04-19T04:56:53.978Z,18.67
2019-04-19T04:57:51.998Z,18.59
2019-04-19T04:58:47.489Z,18.57
2019-04-19T04:59:50.064Z,18.59
2019-04-19T05:00:53.295Z,18.52
2019-04-19T05:01:56.177Z,18.47
2019-04-19T05:03:00.068Z,18.39
2019-04-19T05:04:01.961Z,18.40
2019-04-19T05:05:06.264Z,18.44
2019-04-19T05:06:06.183Z,18.44
2019-04-19T05:07:08.376Z,18.42
2019-04-19T05:08:09.352Z,18.42
2019-04-19T05:09:01.068Z,18.36
2019-04-19T05:10:06.283Z,18.36
2019-04-19T05:11:07.627Z,18.29
2019-04-19T05:12:09.058Z,18.29
2019-04-19T05:14:06.009Z,18.34
2019-04-19T05:14:56.180Z,18.22
2019-04-19T05:16:06.728Z,18.22
2019-04-19T05:17:24.506Z,18.27
2019-04-19T05:18:12.802Z,18.21
2019-04-19T05:18:59.462Z,18.27
2019-04-19T05:20:05.142Z,18.17
2019-04-19T05:20:56.610Z,18.33
2019-04-19T05:22:05.598Z,18.04
2019-04-19T05:23:03.077Z,18.13
2019-04-19T05:24:09.290Z,18.04
2019-04-19T05:25:12.530Z,18.12
2019-04-19T05:26:10.369Z,18.18
2019-04-19T05:27:08.935Z,18.06
2019-04-19T05:28:11.383Z,18.13
2019-04-19T05:29:00.924Z,18.06
2019-04-19T05:29:49.749Z,18.10
2019-04-19T05:30:53.815Z,18.07
2019-04-19T05:31:51.218Z,18.13
2019-04-19T05:32:57.945Z,18.04
2019-04-19T05:34:09.645Z,18.13
2019-04-19T05:34:59.882Z,18.09
2019-04-19T05:36:08.365Z,18.10
2019-04-19T05:37:02.506Z,18.09
2019-04-19T05:38:03.557Z,18.18
2019-04-19T05:39:08.543Z,18.15
2019-04-19T05:40:06.468Z,18.13
2019-04-19T05:40:57.117Z,18.02
2019-04-19T05:41:59.747Z,18.00
2019-04-19T05:43:04.376Z,18.00
2019-04-19T05:44:17.129Z,17.94
2019-04-19T05:45:20.757Z,17.92
2019-04-19T05:46:21.672Z,17.99
2019-04-19T05:47:05.919Z,18.02
2019-04-19T05:47:59.048Z,17.94
2019-04-19T05:49:04.197Z,17.92
2019-04-19T05:50:12.293Z,17.92
2019-04-19T05:51:16.663Z,17.97
2019-04-19T05:52:09.248Z,17.88
2019-04-19T05:53:01.113Z,17.82
2019-04-19T05:53:51.876Z,17.82
2019-04-19T05:54:47.254Z,17.88
2019-04-19T05:55:47.731Z,17.85
2019-04-19T05:56:51.695Z,17.81
2019-04-19T05:58:02.329Z,17.81
2019-04-19T05:58:57.913Z,17.85
2019-04-19T05:59:54.694Z,17.74
2019-04-19T06:01:04.621Z,17.74
2019-04-19T06:02:02.786Z,17.71
2019-04-19T06:02:56.803Z,17.73
2019-04-19T06:04:07.459Z,17.73
2019-04-19T06:05:11.386Z,17.71
2019-04-19T06:06:15.994Z,17.66
2019-04-19T06:07:09.489Z,17.64
2019-04-19T06:07:59.549Z,17.67
2019-04-19T06:08:47.750Z,17.71
2019-04-19T06:09:47.824Z,17.69
2019-04-19T06:10:53.422Z,17.70
2019-04-19T06:11:48.440Z,17.73
2019-04-19T06:12:51.443Z,17.84
2019-04-19T06:14:03.826Z,17.76
2019-04-19T06:15:08.136Z,17.73
2019-04-19T06:16:05.679Z,17.78
2019-04-19T06:17:02.999Z,17.69
2019-04-19T06:18:06.508Z,17.78
2019-04-19T06:19:08.938Z,17.74
2019-04-19T06:20:09.531Z,17.73
2019-04-19T06:21:10.590Z,17.81
2019-04-19T06:22:01.969Z,17.78
2019-04-19T06:23:10.661Z,17.82
2019-04-19T06:24:12.280Z,17.82
2019-04-19T06:25:06.502Z,17.73
2019-04-19T06:26:35.432Z,17.67
2019-04-19T06:27:12.877Z,17.66
2019-04-19T06:29:10.885Z,17.63
2019-04-19T06:30:13.311Z,17.63
2019-04-19T06:31:12.934Z,17.64
2019-04-19T06:32:07.694Z,17.55
2019-04-19T06:33:07.838Z,17.54
2019-04-19T06:34:15.053Z,17.62
2019-04-19T06:35:02.077Z,17.47
2019-04-19T06:35:55.529Z,17.48
2019-04-19T06:36:59.560Z,17.53
2019-04-19T06:37:50.200Z,17.48
2019-04-19T06:38:49.048Z,17.41
2019-04-19T06:39:51.331Z,17.43
2019-04-19T06:40:54.060Z,17.46
2019-04-19T06:41:56.871Z,17.46
2019-04-19T06:42:56.845Z,17.41
2019-04-19T06:43:58.955Z,17.40
2019-04-19T06:45:08.948Z,17.40
2019-04-19T06:46:07.068Z,17.29
2019-04-19T06:47:01.884Z,17.30
2019-04-19T06:47:56.983Z,17.23
2019-04-19T06:48:57.452Z,17.33
2019-04-19T06:49:52.471Z,17.28
2019-04-19T06:50:54.152Z,17.32
2019-04-19T06:51:58.754Z,17.28
2019-04-19T06:52:50.905Z,17.30
2019-04-19T06:53:55.535Z,17.26
2019-04-19T06:54:49.852Z,17.26
2019-04-19T06:55:52.998Z,17.20
2019-04-19T06:57:03.066Z,17.25
2019-04-19T06:57:58.987Z,17.22
2019-04-19T06:59:04.246Z,17.23
2019-04-19T07:00:02.925Z,17.22
2019-04-19T07:01:04.804Z,17.26
2019-04-19T07:01:54.709Z,17.25
2019-04-19T07:02:50.108Z,17.26
2019-04-19T07:03:50.139Z,17.18
2019-04-19T07:05:03.115Z,17.17
2019-04-19T07:06:10.353Z,17.23
2019-04-19T07:07:09.648Z,17.17
2019-04-19T07:08:26.265Z,17.17
2019-04-19T07:09:21.049Z,17.14
2019-04-19T07:10:20.624Z,17.13
2019-04-19T07:11:15.024Z,17.15
2019-04-19T07:12:14.797Z,17.20
2019-04-19T07:13:04.739Z,17.22
2019-04-19T07:14:00.807Z,17.13
2019-04-19T07:15:12.517Z,17.15
2019-04-19T07:16:13.126Z,17.13
2019-04-19T07:17:13.140Z,17.22
2019-04-19T07:18:05.143Z,17.20
2019-04-19T07:19:08.722Z,17.20
2019-04-19T07:20:07.669Z,17.26
2019-04-19T07:21:13.621Z,17.20
2019-04-19T07:22:05.182Z,17.25
2019-04-19T07:23:02.842Z,17.20
2019-04-19T07:24:16.271Z,17.29
2019-04-19T07:25:20.105Z,17.30
2019-04-19T07:26:16.981Z,17.23
2019-04-19T07:27:05.973Z,17.28
2019-04-19T07:28:00.642Z,17.30
2019-04-19T07:28:51.598Z,17.32
2019-04-19T07:29:52.344Z,17.25
2019-04-19T07:30:58.417Z,17.38
2019-04-19T07:31:51.355Z,17.29
2019-04-19T07:33:00.463Z,17.33
2019-04-19T07:34:05.005Z,17.30
2019-04-19T07:35:05.774Z,17.35
2019-04-19T07:36:14.165Z,17.30
2019-04-19T07:37:12.200Z,17.33
2019-04-19T07:38:19.648Z,17.29
2019-04-19T07:39:09.243Z,17.25
2019-04-19T07:40:11.226Z,17.28
2019-04-19T07:41:14.491Z,17.36
2019-04-19T07:42:10.924Z,17.40
2019-04-19T07:43:06.930Z,17.29
2019-04-19T07:44:02.797Z,17.33
2019-04-19T07:44:58.236Z,17.32
2019-04-19T07:46:18.144Z,17.35
2019-04-19T07:47:08.955Z,17.40
2019-04-19T07:47:58.441Z,17.33
2019-04-19T07:48:53.412Z,17.29
2019-04-19T07:50:01.406Z,17.26
2019-04-19T07:51:00.299Z,17.35
2019-04-19T07:52:02.421Z,17.29
2019-04-19T07:52:58.267Z,17.35
2019-04-19T07:53:54.664Z,17.30
2019-04-19T07:54:55.270Z,17.20
2019-04-19T07:56:04.524Z,17.26
2019-04-19T07:57:19.923Z,17.28
2019-04-19T07:58:30.330Z,17.35
2019-04-19T07:59:18.523Z,17.36
2019-04-19T08:00:19.140Z,17.43
2019-04-19T08:01:22.575Z,17.46
2019-04-19T08:03:25.736Z,17.41
2019-04-19T08:04:38.350Z,17.41
2019-04-19T08:05:15.927Z,17.41
2019-04-19T08:06:20.852Z,17.40
2019-04-19T08:07:32.333Z,17.50
2019-04-19T08:09:22.097Z,17.50
2019-04-19T08:10:33.413Z,17.53
2019-04-19T08:11:26.792Z,17.51
2019-04-19T08:13:33.287Z,17.50
2019-04-19T08:15:19.850Z,17.51
2019-04-19T08:16:09.533Z,17.48
2019-04-19T08:18:24.304Z,17.46
2019-04-19T08:28:08.551Z,17.44
2019-04-19T08:29:07.199Z,17.50
2019-04-19T08:30:00.066Z,17.51
2019-04-19T08:30:58.294Z,17.47
2019-04-19T08:31:55.186Z,17.50
2019-04-19T08:32:53.923Z,17.51
2019-04-19T08:33:55.168Z,17.51
2019-04-19T08:35:00.407Z,17.50
2019-04-19T08:35:57.035Z,17.55
2019-04-19T08:36:59.824Z,17.43
2019-04-19T08:38:02.436Z,17.54
2019-04-19T08:39:14.069Z,17.48
2019-04-19T08:40:15.529Z,17.51
2019-04-19T08:41:09.214Z,17.43
2019-04-19T08:42:20.927Z,17.51
2019-04-19T08:43:20.028Z,17.53
2019-04-19T08:44:10.241Z,17.41
2019-04-19T08:45:01.739Z,17.40
2019-04-19T08:45:55.191Z,17.36
2019-04-19T08:46:55.648Z,17.32
2019-04-19T08:48:04.690Z,17.22
2019-04-19T08:48:58.593Z,17.23
2019-04-19T08:49:59.562Z,17.11
2019-04-19T08:50:56.827Z,17.18
2019-04-19T08:51:55.864Z,17.14
2019-04-19T08:53:01.547Z,17.10
2019-04-19T08:54:20.542Z,17.00
2019-04-19T08:55:13.988Z,17.06
2019-04-19T08:56:11.627Z,17.08
2019-04-19T08:57:04.330Z,17.04
2019-04-19T08:58:03.054Z,17.06
2019-04-19T08:59:23.933Z,17.11
2019-04-19T09:00:19.136Z,17.10
2019-04-19T09:01:22.305Z,17.13
2019-04-19T09:02:19.494Z,17.03
2019-04-19T09:03:08.709Z,17.08
2019-04-19T09:04:14.724Z,16.96
2019-04-19T09:05:16.735Z,16.90
2019-04-19T09:07:04.214Z,16.96
2019-04-19T09:08:18.566Z,16.92
2019-04-19T09:09:15.717Z,16.95
2019-04-19T09:11:13.637Z,16.89
2019-04-19T09:12:12.348Z,16.80
2019-04-19T09:13:22.409Z,16.83
2019-04-19T09:14:19.407Z,16.86
2019-04-19T09:15:13.445Z,16.81
2019-04-19T09:16:12.758Z,16.78
2019-04-19T09:17:18.986Z,16.77
2019-04-19T09:19:26.800Z,16.71
2019-04-19T09:20:15.908Z,16.68
2019-04-19T09:21:15.231Z,16.70
2019-04-19T09:22:11.767Z,16.68
2019-04-19T09:23:14.289Z,16.71
2019-04-19T09:24:02.859Z,16.70
2019-04-19T09:25:05.631Z,16.65
2019-04-19T09:26:07.971Z,16.65
2019-04-19T09:27:10.058Z,16.73
2019-04-19T09:28:29.493Z,16.74
2019-04-19T09:29:24.559Z,16.73
2019-04-19T09:30:20.342Z,16.60
2019-04-19T09:31:13.151Z,16.74
2019-04-19T09:32:07.433Z,16.74
2019-04-19T09:33:01.131Z,16.77
2019-04-19T09:34:04.724Z,16.74
2019-04-19T09:35:02.435Z,16.71
2019-04-19T09:36:03.232Z,16.73
2019-04-19T09:37:05.571Z,16.75
2019-04-19T09:38:10.439Z,16.71
2019-04-19T09:39:16.262Z,16.67
2019-04-19T09:40:06.539Z,16.63
2019-04-19T09:41:02.994Z,16.77
2019-04-19T09:42:01.333Z,16.77
2019-04-19T09:43:13.737Z,16.74
2019-04-19T09:44:08.192Z,16.80
2019-04-19T09:45:00.073Z,16.80
2019-04-19T09:45:57.614Z,16.77
2019-04-19T09:46:57.235Z,16.75
2019-04-19T09:47:57.085Z,16.73
2019-04-19T09:49:11.907Z,16.81
2019-04-19T09:50:06.679Z,16.80
2019-04-19T09:51:16.494Z,16.85
2019-04-19T09:52:22.522Z,16.83
2019-04-19T09:53:25.862Z,16.88
2019-04-19T09:54:19.163Z,16.90
2019-04-19T09:55:22.709Z,16.93
2019-04-19T09:56:17.359Z,16.81
2019-04-19T09:57:15.747Z,16.85
2019-04-19T09:58:19.806Z,16.92
2019-04-19T09:59:10.479Z,17.07
2019-04-19T10:00:02.205Z,17.03
2019-04-19T10:00:58.307Z,17.04
2019-04-19T10:02:01.151Z,17.07
2019-04-19T10:03:01.513Z,17.10
2019-04-19T10:04:01.366Z,17.17
2019-04-19T10:04:58.827Z,17.17
2019-04-19T10:05:59.390Z,17.17
2019-04-19T10:06:58.674Z,17.20
2019-04-19T10:07:57.946Z,17.30
2019-04-19T10:08:58.133Z,17.28
2019-04-19T10:10:04.152Z,17.41
2019-04-19T10:10:58.814Z,17.47
2019-04-19T10:11:59.594Z,17.44
2019-04-19T10:12:58.166Z,17.67
2019-04-19T10:13:58.196Z,18.12
2019-04-19T10:14:58.292Z,18.57
2019-04-19T10:15:58.576Z,19.02
2019-04-19T10:16:58.339Z,19.42
2019-04-19T10:17:58.639Z,19.84
2019-04-19T10:19:03.074Z,20.28
2019-04-19T10:19:58.480Z,20.71
2019-04-19T10:20:58.759Z,20.98
2019-04-19T10:21:58.568Z,21.41
2019-04-19T10:23:00.878Z,21.64
2019-04-19T10:24:01.828Z,21.95
2019-04-19T10:24:58.939Z,22.22
2019-04-19T10:26:04.604Z,22.43
2019-04-19T10:26:58.936Z,22.68
2019-04-19T10:27:58.836Z,22.97
2019-04-19T10:28:58.898Z,23.23
2019-04-19T10:29:59.932Z,23.60
2019-04-19T10:30:58.998Z,23.86
2019-04-19T10:31:59.040Z,24.13
2019-04-19T10:33:00.280Z,24.27
2019-04-19T10:34:01.860Z,24.61
2019-04-19T10:34:59.192Z,24.76
2019-04-19T10:36:00.156Z,25.07
2019-04-19T10:37:00.330Z,25.13
2019-04-19T10:37:59.773Z,25.17
2019-04-19T10:38:59.499Z,25.19
2019-04-19T10:39:59.569Z,25.42
2019-04-19T10:40:59.732Z,25.30
2019-04-19T10:41:59.504Z,25.06
2019-04-19T10:42:59.582Z,24.92
2019-04-19T10:44:06.936Z,25.07
2019-04-19T10:45:00.338Z,25.32
2019-04-19T10:46:00.622Z,25.79
2019-04-19T10:47:00.769Z,26.09
2019-04-19T10:47:59.928Z,26.24
2019-04-19T10:49:08.265Z,26.40
2019-04-19T10:50:12.025Z,26.42
2019-04-19T10:51:00.023Z,26.83
2019-04-19T10:52:00.633Z,27.10
2019-04-19T10:53:00.666Z,27.01
2019-04-19T10:54:00.146Z,27.20
2019-04-19T10:55:00.151Z,27.20
2019-04-19T10:56:00.411Z,27.16
2019-04-19T10:57:00.309Z,27.11
2019-04-19T10:58:01.117Z,27.14
2019-04-19T10:59:00.821Z,27.38
2019-04-19T11:00:01.000Z,27.64
2019-04-19T11:01:00.994Z,27.79
2019-04-19T11:02:00.526Z,27.92
2019-04-19T11:03:01.113Z,28.03
2019-04-19T11:04:00.636Z,28.26
2019-04-19T11:05:00.875Z,28.06
2019-04-19T11:06:00.871Z,28.06
2019-04-19T11:07:00.822Z,28.04
2019-04-19T11:08:01.329Z,28.25
2019-04-19T11:09:00.890Z,28.59
2019-04-19T11:10:01.876Z,28.59
2019-04-19T11:11:01.336Z,28.93
2019-04-19T11:12:01.781Z,28.68
2019-04-19T11:13:01.101Z,28.60
2019-04-19T11:14:01.152Z,29.11
2019-04-19T11:15:02.518Z,29.47
2019-04-19T11:16:02.519Z,29.99
2019-04-19T11:17:01.834Z,30.12
2019-04-19T11:18:01.588Z,30.11
2019-04-19T11:19:12.159Z,29.55
2019-04-19T11:20:16.940Z,29.62
2019-04-19T11:21:02.482Z,29.75
2019-04-19T11:22:01.656Z,29.60
2019-04-19T11:23:01.824Z,29.79
2019-04-19T11:24:01.983Z,29.97
2019-04-19T11:25:02.055Z,30.30
2019-04-19T11:26:03.040Z,30.57
2019-04-19T11:27:01.829Z,30.40
2019-04-19T11:28:02.967Z,30.37
2019-04-19T11:29:01.953Z,30.54
2019-04-19T11:30:03.270Z,30.36
2019-04-19T11:31:02.543Z,30.18
2019-04-19T11:32:02.133Z,30.36
2019-04-19T11:33:03.143Z,30.59
2019-04-19T11:34:02.220Z,30.90
2019-04-19T11:35:03.249Z,31.02
2019-04-19T11:36:03.563Z,30.47
2019-04-19T11:37:02.391Z,30.68
2019-04-19T11:38:02.787Z,30.29
2019-04-19T11:39:03.049Z,30.47
2019-04-19T11:40:03.464Z,30.78
2019-04-19T11:41:03.024Z,31.01
2019-04-19T11:42:03.252Z,31.06
2019-04-19T11:43:03.644Z,31.31
2019-04-19T11:44:04.113Z,31.75
2019-04-19T11:45:03.748Z,31.95
2019-04-19T11:46:04.057Z,31.73
2019-04-19T11:47:03.477Z,31.76
2019-04-19T11:48:03.210Z,32.22
2019-04-19T11:49:03.861Z,32.51
2019-04-19T11:50:03.864Z,32.59
2019-04-19T11:51:03.692Z,32.80
2019-04-19T11:52:03.212Z,33.15
2019-04-19T11:53:03.974Z,33.19
2019-04-19T11:54:03.316Z,33.08
2019-04-19T11:55:04.650Z,32.99
2019-04-19T11:56:04.569Z,32.99
2019-04-19T11:57:07.128Z,33.10
2019-04-19T11:58:04.142Z,33.01
2019-04-19T11:59:04.676Z,32.89
2019-04-19T12:00:04.115Z,32.69
2019-04-19T12:01:03.822Z,32.66
2019-04-19T12:02:04.037Z,32.57
2019-04-19T12:03:04.396Z,32.62
2019-04-19T12:04:03.911Z,32.64
2019-04-19T12:05:12.742Z,32.80
2019-04-19T12:06:04.405Z,32.66
2019-04-19T12:07:04.081Z,32.76
2019-04-19T12:08:04.410Z,32.70
2019-04-19T12:09:04.665Z,32.42
2019-04-19T12:10:04.230Z,31.95
2019-04-19T12:11:04.387Z,31.58
2019-04-19T12:12:05.396Z,31.62
2019-04-19T12:13:04.441Z,31.36
2019-04-19T12:14:04.439Z,31.64
2019-04-19T12:15:04.522Z,31.84
2019-04-19T12:16:06.026Z,31.99
2019-04-19T12:17:04.911Z,32.20
2019-04-19T12:18:04.705Z,32.29
2019-04-19T12:19:04.736Z,32.13
2019-04-19T12:20:07.321Z,32.07
2019-04-19T12:21:05.103Z,32.32
2019-04-19T12:22:05.471Z,32.66
2019-04-19T12:23:04.949Z,32.27
2019-04-19T12:24:05.035Z,31.75
2019-04-19T12:25:05.859Z,32.07
2019-04-19T12:26:06.058Z,32.42
2019-04-19T12:27:05.384Z,32.11
2019-04-19T12:28:05.658Z,31.85
2019-04-19T12:29:07.192Z,31.49
2019-04-19T12:30:05.508Z,31.27
2019-04-19T12:31:05.426Z,31.30
2019-04-19T12:32:05.516Z,31.64
2019-04-19T12:33:05.655Z,32.21
2019-04-19T12:34:09.196Z,32.24
2019-04-19T12:35:06.750Z,31.98
2019-04-19T12:36:05.727Z,32.30
2019-04-19T12:37:06.966Z,32.69
2019-04-19T12:38:06.027Z,32.79
2019-04-19T12:39:07.034Z,32.62
2019-04-19T12:40:06.627Z,32.95
2019-04-19T12:41:06.146Z,32.77
2019-04-19T12:42:06.189Z,33.10
2019-04-19T12:43:06.096Z,33.42
2019-04-19T12:44:06.948Z,33.73
2019-04-19T12:45:06.246Z,33.85
2019-04-19T12:46:07.328Z,33.76
2019-04-19T12:47:06.964Z,33.86
2019-04-19T12:48:07.672Z,34.05
2019-04-19T12:49:06.748Z,33.86
2019-04-19T12:50:09.106Z,34.26
2019-04-19T12:51:07.869Z,34.58
2019-04-19T12:52:06.619Z,34.99
2019-04-19T12:53:06.676Z,35.23
2019-04-19T12:54:07.815Z,35.50
2019-04-19T12:55:08.052Z,35.26
2019-04-19T12:56:08.250Z,35.20
2019-04-19T12:57:07.768Z,35.14
2019-04-19T12:58:08.069Z,35.37
2019-04-19T12:59:09.186Z,35.82
2019-04-19T13:00:07.819Z,35.79
2019-04-19T13:01:08.025Z,35.70
2019-04-19T13:02:07.918Z,35.52
2019-04-19T13:03:07.621Z,35.50
2019-04-19T13:04:08.590Z,35.18
2019-04-19T13:05:08.616Z,35.17
2019-04-19T13:06:07.430Z,35.18
2019-04-19T13:07:08.753Z,35.37
2019-04-19T13:08:07.596Z,35.35
2019-04-19T13:09:09.011Z,35.54
2019-04-19T13:10:08.967Z,35.63
2019-04-19T13:11:09.089Z,35.36
2019-04-19T13:12:08.620Z,35.40
2019-04-19T13:13:07.846Z,35.33
2019-04-19T13:14:08.036Z,35.29
2019-04-19T13:15:07.981Z,35.18
2019-04-19T13:16:08.339Z,35.35
2019-04-19T13:17:08.375Z,35.20
2019-04-19T13:18:08.140Z,34.22
2019-04-19T13:19:08.252Z,34.41
2019-04-19T13:20:15.599Z,34.54